createdAt,value
2023-02-21T00:01:00.832Z,6.70
2023-02-21T00:03:46.384Z,6.80
2023-02-21T00:06:33.255Z,7.00
2023-02-21T00:09:18.649Z,7.10
2023-02-21T00:12:04.550Z,7.10
2023-02-21T00:14:50.137Z,7.20
2023-02-21T00:17:35.614Z,7.30
2023-02-21T00:20:21.116Z,7.30
2023-02-21T00:23:07.867Z,7.40
2023-02-21T00:25:53.451Z,7.50
2023-02-21T00:28:38.835Z,7.30
2023-02-21T00:31:24.842Z,7.20
2023-02-21T00:34:10.872Z,7.10
2023-02-21T00:36:56.389Z,7.00
2023-02-21T00:39:43.341Z,6.80
2023-02-21T00:42:28.763Z,6.80
2023-02-21T00:45:14.380Z,6.60
2023-02-21T00:48:00.073Z,6.50
2023-02-21T00:50:45.402Z,6.40
2023-02-21T00:53:30.935Z,6.60
2023-02-21T00:56:17.747Z,6.50
2023-02-21T00:59:03.250Z,6.30
2023-02-21T01:01:48.824Z,6.30
2023-02-21T01:04:34.304Z,6.20
2023-02-21T01:07:19.890Z,6.00
2023-02-21T01:10:05.307Z,6.20
2023-02-21T01:12:52.051Z,6.00
2023-02-21T01:15:37.576Z,6.00
2023-02-21T01:18:23.020Z,6.20
2023-02-21T01:21:08.591Z,6.10
2023-02-21T01:23:54.116Z,5.90
2023-02-21T01:26:39.513Z,6.20
2023-02-21T01:29:26.321Z,5.90
2023-02-21T01:32:11.793Z,5.80
2023-02-21T01:34:57.259Z,5.70
2023-02-21T01:37:42.737Z,5.80
2023-02-21T01:40:33.179Z,5.60
2023-02-21T01:43:18.644Z,5.50
2023-02-21T01:46:10.398Z,5.60
2023-02-21T01:48:56.373Z,5.80
2023-02-21T01:51:47.039Z,5.70
2023-02-21T01:54:32.437Z,5.80
2023-02-21T01:57:19.625Z,5.80
2023-02-21T02:00:06.099Z,5.90
2023-02-21T02:03:01.878Z,5.90
2023-02-21T02:05:47.682Z,5.70
2023-02-21T02:08:35.028Z,5.70
2023-02-21T02:11:30.948Z,5.70
2023-02-21T02:14:18.548Z,5.50
2023-02-21T02:16:52.738Z,5.40
2023-02-21T02:20:10.977Z,5.50
2023-02-21T02:23:18.151Z,5.30
2023-02-21T02:26:12.443Z,5.40
2023-02-21T02:29:04.195Z,5.60
2023-02-21T02:32:10.443Z,5.40
2023-02-21T02:34:53.706Z,5.40
2023-02-21T02:37:30.379Z,5.40
2023-02-21T02:40:08.231Z,5.50
2023-02-21T02:42:48.424Z,5.50
2023-02-21T02:45:24.325Z,5.30
2023-02-21T02:47:56.584Z,5.10
2023-02-21T02:50:27.645Z,5.40
2023-02-21T02:52:57.714Z,5.20
2023-02-21T02:55:37.355Z,5.40
2023-02-21T02:58:06.526Z,5.30
2023-02-21T03:00:37.305Z,5.60
2023-02-21T03:03:23.232Z,5.70
2023-02-21T03:06:09.242Z,5.40
2023-02-21T03:08:47.042Z,5.40
2023-02-21T03:11:19.000Z,5.40
2023-02-21T03:13:50.858Z,5.50
2023-02-21T03:16:28.140Z,5.70
2023-02-21T03:19:02.418Z,5.30
2023-02-21T03:21:37.116Z,5.50
2023-02-21T03:24:07.201Z,5.50
2023-02-21T03:26:38.685Z,5.50
2023-02-21T03:29:09.887Z,5.50
2023-02-21T03:31:44.936Z,5.60
2023-02-21T03:34:13.115Z,5.40
2023-02-21T03:36:43.362Z,5.30
2023-02-21T03:39:11.391Z,5.50
2023-02-21T03:41:39.380Z,5.50
2023-02-21T03:44:07.353Z,5.30
2023-02-21T03:46:36.047Z,5.40
2023-02-21T03:49:04.073Z,5.30
2023-02-21T03:51:32.065Z,5.30
2023-02-21T03:54:01.450Z,5.10
2023-02-21T03:56:41.245Z,5.00
2023-02-21T03:59:10.294Z,5.10
2023-02-21T04:01:38.370Z,5.00
2023-02-21T04:04:06.424Z,4.90
2023-02-21T04:06:34.394Z,4.80
2023-02-21T04:09:03.872Z,4.80
2023-02-21T04:11:32.904Z,4.80
2023-02-21T04:14:00.938Z,4.70
2023-02-21T04:16:29.041Z,4.60
2023-02-21T04:18:57.157Z,4.50
2023-02-21T04:21:25.201Z,4.40
2023-02-21T04:23:53.155Z,4.40
2023-02-21T04:26:23.979Z,4.50
2023-02-21T04:28:53.893Z,4.60
2023-02-21T04:31:21.984Z,4.60
2023-02-21T04:33:56.923Z,4.50
2023-02-21T04:36:30.609Z,4.70
2023-02-21T04:38:58.559Z,4.60
2023-02-21T04:41:27.960Z,4.50
2023-02-21T04:43:55.920Z,4.50
2023-02-21T04:46:23.975Z,4.40
2023-02-21T04:48:53.826Z,4.30
2023-02-21T04:51:24.761Z,4.20
2023-02-21T04:53:55.334Z,4.20
2023-02-21T04:56:29.002Z,4.30
2023-02-21T04:58:57.575Z,4.30
2023-02-21T05:01:30.752Z,4.10
2023-02-21T05:03:59.110Z,4.00
2023-02-21T05:06:29.772Z,4.20
2023-02-21T05:08:58.356Z,4.50
2023-02-21T05:11:28.108Z,4.40
2023-02-21T05:13:56.136Z,4.30
2023-02-21T05:16:24.192Z,4.40
2023-02-21T05:18:52.235Z,4.20
2023-02-21T05:21:21.383Z,4.10
2023-02-21T05:23:56.582Z,4.10
2023-02-21T05:26:30.944Z,4.00
2023-02-21T05:28:59.448Z,4.00
2023-02-21T05:31:28.005Z,4.00
2023-02-21T05:33:56.176Z,4.00
2023-02-21T05:36:25.681Z,4.20
2023-02-21T05:38:56.268Z,4.00
2023-02-21T05:41:24.833Z,4.00
2023-02-21T05:43:54.616Z,3.90
2023-02-21T05:46:26.517Z,4.00
2023-02-21T05:48:57.523Z,3.90
2023-02-21T05:51:27.200Z,3.80
2023-02-21T05:53:55.691Z,3.70
2023-02-21T05:56:23.900Z,3.70
2023-02-21T05:58:53.259Z,3.70
2023-02-21T06:01:21.384Z,3.90
2023-02-21T06:03:49.380Z,4.00
2023-02-21T06:06:17.571Z,3.80
2023-02-21T06:08:48.360Z,3.80
2023-02-21T06:11:17.745Z,3.80
2023-02-21T06:13:45.808Z,3.90
2023-02-21T06:16:15.255Z,4.00
2023-02-21T06:18:43.249Z,4.10
2023-02-21T06:21:11.334Z,4.00
2023-02-21T06:23:39.317Z,3.90
2023-02-21T06:26:07.361Z,4.00
2023-02-21T06:28:35.936Z,4.10
2023-02-21T06:31:05.886Z,4.10
2023-02-21T06:33:35.498Z,4.00
2023-02-21T06:36:06.932Z,4.00
2023-02-21T06:38:35.597Z,4.10
2023-02-21T06:41:07.682Z,4.20
2023-02-21T06:43:36.600Z,4.10
2023-02-21T06:46:05.570Z,4.00
2023-02-21T06:48:35.201Z,3.90
2023-02-21T06:51:05.475Z,4.00
2023-02-21T06:53:33.437Z,4.20
2023-02-21T06:56:01.437Z,4.00
2023-02-21T06:58:29.415Z,3.80
2023-02-21T07:00:58.643Z,3.90
2023-02-21T07:03:27.609Z,3.90
2023-02-21T07:05:57.015Z,3.90
2023-02-21T07:08:25.849Z,3.90
2023-02-21T07:10:54.082Z,4.00
2023-02-21T07:13:22.634Z,4.00
2023-02-21T07:15:50.722Z,4.10
2023-02-21T07:18:18.787Z,4.00
2023-02-21T07:20:46.860Z,4.10
2023-02-21T07:23:16.224Z,4.20
2023-02-21T07:25:44.311Z,4.30
2023-02-21T07:28:12.419Z,4.50
2023-02-21T07:30:40.655Z,4.50
2023-02-21T07:33:08.682Z,4.50
2023-02-21T07:35:36.708Z,4.70
2023-02-21T07:38:04.737Z,5.00
2023-02-21T07:40:34.502Z,5.20
2023-02-21T07:43:02.931Z,5.70
2023-02-21T07:45:30.919Z,6.50
2023-02-21T07:47:58.862Z,7.20
2023-02-21T07:50:26.909Z,8.00
2023-02-21T07:52:56.616Z,8.80
2023-02-21T07:55:24.832Z,9.50
2023-02-21T07:57:54.210Z,10.20
2023-02-21T08:00:25.214Z,10.90
2023-02-21T08:02:54.272Z,11.60
2023-02-21T08:05:23.192Z,12.20
2023-02-21T08:07:51.580Z,11.80
2023-02-21T08:10:23.405Z,11.70
2023-02-21T08:12:53.146Z,11.50
2023-02-21T08:15:21.199Z,11.80
2023-02-21T08:17:49.977Z,12.00
2023-02-21T08:20:18.722Z,12.10
2023-02-21T08:22:46.998Z,12.10
2023-02-21T08:25:17.178Z,12.40
2023-02-21T08:27:46.646Z,12.80
2023-02-21T08:30:18.428Z,13.40
2023-02-21T08:32:48.181Z,13.40
2023-02-21T08:35:17.060Z,13.60
2023-02-21T08:37:46.329Z,13.80
2023-02-21T08:40:15.466Z,14.00
2023-02-21T08:42:43.483Z,14.90
2023-02-21T08:45:19.557Z,15.70
2023-02-21T08:47:47.924Z,16.70
2023-02-21T08:50:16.596Z,17.10
2023-02-21T08:52:46.900Z,17.10
2023-02-21T08:55:16.453Z,16.90
2023-02-21T08:57:44.600Z,16.50
2023-02-21T09:00:15.722Z,16.60
2023-02-21T09:02:46.065Z,17.10
2023-02-21T09:05:17.651Z,17.20
2023-02-21T09:07:48.666Z,16.70
2023-02-21T09:10:18.226Z,16.70
2023-02-21T09:12:46.337Z,16.80
2023-02-21T09:15:17.550Z,17.00
2023-02-21T09:17:47.236Z,17.20
2023-02-21T09:20:19.701Z,17.50
2023-02-21T09:22:48.464Z,17.90
2023-02-21T09:25:20.331Z,18.10
2023-02-21T09:27:48.627Z,18.40
2023-02-21T09:30:21.510Z,17.90
2023-02-21T09:32:51.255Z,18.10
2023-02-21T09:35:19.643Z,18.20
2023-02-21T09:37:48.441Z,17.90
2023-02-21T09:40:26.426Z,18.10
2023-02-21T09:42:57.383Z,18.00
2023-02-21T09:45:26.759Z,17.50
2023-02-21T09:47:58.286Z,17.30
2023-02-21T09:50:31.113Z,17.20
2023-02-21T09:53:00.195Z,17.10
2023-02-21T09:55:33.071Z,17.00
2023-02-21T09:58:01.206Z,16.30
2023-02-21T10:00:35.522Z,16.30
2023-02-21T10:03:24.196Z,15.80
2023-02-21T10:05:59.800Z,16.70
2023-02-21T10:08:37.209Z,16.70
2023-02-21T10:11:23.435Z,17.30
2023-02-21T10:13:59.755Z,17.10
2023-02-21T10:16:34.653Z,17.00
2023-02-21T10:19:15.516Z,17.30
2023-02-21T10:21:47.319Z,17.00
2023-02-21T10:24:18.400Z,16.90
2023-02-21T10:26:53.471Z,17.50
2023-02-21T10:29:26.443Z,18.30
2023-02-21T10:32:02.364Z,18.10
2023-02-21T10:34:34.383Z,18.00
2023-02-21T10:37:12.467Z,18.70
2023-02-21T10:39:47.655Z,19.00
2023-02-21T10:42:27.450Z,19.50
2023-02-21T10:44:56.844Z,19.30
2023-02-21T10:47:34.262Z,19.80
2023-02-21T10:50:08.943Z,19.20
2023-02-21T10:52:39.666Z,20.00
2023-02-21T10:55:31.283Z,20.30
2023-02-21T10:58:11.785Z,19.40
2023-02-21T11:00:47.909Z,20.30
2023-02-21T11:03:23.919Z,20.20
2023-02-21T11:05:57.632Z,20.40
2023-02-21T11:08:39.468Z,19.80
2023-02-21T11:11:08.469Z,21.00
2023-02-21T11:13:36.951Z,21.60
2023-02-21T11:16:13.193Z,21.30
2023-02-21T11:18:41.295Z,21.50
2023-02-21T11:21:17.849Z,21.20
2023-02-21T11:23:54.220Z,21.30
2023-02-21T11:26:24.302Z,21.50
2023-02-21T11:28:53.838Z,20.60
2023-02-21T11:31:30.038Z,21.00
2023-02-21T11:34:01.348Z,20.50
2023-02-21T11:36:34.005Z,20.30
2023-02-21T11:39:07.572Z,21.00
2023-02-21T11:41:47.376Z,21.90
2023-02-21T11:44:31.390Z,21.60
2023-02-21T11:47:10.288Z,20.50
2023-02-21T11:49:52.281Z,20.80
2023-02-21T11:52:27.245Z,21.00
2023-02-21T11:54:55.347Z,21.00
2023-02-21T11:57:32.132Z,20.90
2023-02-21T12:00:21.046Z,20.90
2023-02-21T12:03:42.643Z,21.00
2023-02-21T12:06:19.279Z,21.20
2023-02-21T12:08:52.899Z,20.90
2023-02-21T12:11:38.163Z,20.40
2023-02-21T12:14:21.001Z,20.70
2023-02-21T12:17:05.161Z,20.30
2023-02-21T12:19:53.236Z,19.60
2023-02-21T12:22:37.233Z,19.70
2023-02-21T12:25:19.791Z,19.70
2023-02-21T12:27:55.906Z,18.70
2023-02-21T12:30:45.004Z,18.40
2023-02-21T12:33:31.571Z,18.00
2023-02-21T12:36:42.053Z,17.00
2023-02-21T12:39:28.218Z,17.10
2023-02-21T12:42:26.476Z,17.50
2023-02-21T12:45:08.623Z,17.40
2023-02-21T12:47:46.055Z,17.40
2023-02-21T12:50:19.745Z,17.60
2023-02-21T12:53:02.818Z,17.90
2023-02-21T12:55:35.778Z,18.00
2023-02-21T12:58:18.359Z,18.40
2023-02-21T13:00:53.842Z,18.50
2023-02-21T13:03:38.284Z,18.60
2023-02-21T13:06:14.352Z,18.60
2023-02-21T13:08:55.159Z,18.40
2023-02-21T13:11:30.083Z,18.60
2023-02-21T13:14:00.620Z,18.60
2023-02-21T13:16:28.832Z,18.10
2023-02-21T13:19:02.157Z,17.90
2023-02-21T13:21:49.322Z,17.60
2023-02-21T13:24:39.654Z,17.30
2023-02-21T13:27:53.093Z,17.00
2023-02-21T13:30:29.079Z,16.70
2023-02-21T13:32:59.713Z,16.10
2023-02-21T13:35:32.930Z,16.00
2023-02-21T13:38:02.465Z,15.60
2023-02-21T13:40:37.728Z,15.50
2023-02-21T13:43:12.313Z,15.50
2023-02-21T13:45:41.748Z,15.60
2023-02-21T13:48:27.827Z,15.20
2023-02-21T13:50:58.061Z,15.30
2023-02-21T13:53:34.619Z,15.20
2023-02-21T13:56:42.872Z,15.30
2023-02-21T13:59:35.896Z,15.30
2023-02-21T14:02:25.065Z,15.20
2023-02-21T14:05:13.829Z,15.10
2023-02-21T14:08:01.832Z,15.10
2023-02-21T14:10:44.532Z,15.40
2023-02-21T14:13:33.680Z,15.20
2023-02-21T14:16:15.586Z,15.10
2023-02-21T14:18:50.532Z,15.30
2023-02-21T14:21:38.565Z,15.30
2023-02-21T14:24:15.881Z,15.20
2023-02-21T14:26:47.459Z,15.10
2023-02-21T14:29:30.197Z,15.20
2023-02-21T14:32:17.347Z,15.20
2023-02-21T14:34:57.262Z,15.20
2023-02-21T14:37:31.834Z,15.40
2023-02-21T14:40:02.554Z,15.50
2023-02-21T14:42:55.741Z,15.50
2023-02-21T14:45:37.168Z,15.40
2023-02-21T14:48:39.506Z,15.30
2023-02-21T14:51:52.361Z,15.30
2023-02-21T14:55:01.288Z,15.20
2023-02-21T14:58:07.620Z,15.50
2023-02-21T15:00:49.999Z,15.40
2023-02-21T15:03:23.294Z,15.40
2023-02-21T15:06:03.658Z,15.50
2023-02-21T15:08:43.456Z,15.40
2023-02-21T15:11:26.404Z,15.40
2023-02-21T15:14:24.046Z,15.30
2023-02-21T15:16:55.797Z,15.20
2023-02-21T15:19:29.250Z,15.30
2023-02-21T15:22:30.194Z,15.20
2023-02-21T15:25:24.775Z,15.30
2023-02-21T15:28:06.218Z,15.20
2023-02-21T15:30:41.306Z,15.10
2023-02-21T15:33:16.992Z,14.90
2023-02-21T15:35:50.735Z,14.90
2023-02-21T15:38:24.906Z,14.80
2023-02-21T15:40:58.372Z,14.60
2023-02-21T15:43:43.458Z,14.50
2023-02-21T15:46:27.305Z,14.50
2023-02-21T15:49:01.309Z,14.30
2023-02-21T15:51:33.446Z,14.10
2023-02-21T15:54:24.746Z,14.00
2023-02-21T15:57:09.537Z,14.20
2023-02-21T15:59:38.569Z,14.10
2023-02-21T16:02:19.188Z,14.10
2023-02-21T16:04:49.616Z,14.10
2023-02-21T16:07:23.195Z,14.00
2023-02-21T16:09:59.530Z,14.00
2023-02-21T16:12:37.425Z,13.90
2023-02-21T16:15:09.850Z,13.50
2023-02-21T16:17:41.333Z,13.70
2023-02-21T16:20:18.334Z,13.30
2023-02-21T16:23:08.015Z,13.10
2023-02-21T16:25:36.860Z,12.90
2023-02-21T16:28:13.990Z,12.80
2023-02-21T16:30:42.363Z,12.80
2023-02-21T16:33:14.384Z,12.80
2023-02-21T16:35:43.285Z,12.80
2023-02-21T16:38:15.496Z,12.50
2023-02-21T16:40:43.716Z,12.30
2023-02-21T16:43:20.057Z,12.20
2023-02-21T16:45:49.413Z,12.10
2023-02-21T16:48:21.692Z,11.90
2023-02-21T16:50:51.358Z,11.90
2023-02-21T16:53:21.097Z,11.70
2023-02-21T16:55:50.292Z,11.50
2023-02-21T16:58:27.866Z,11.60
2023-02-21T17:00:59.038Z,11.50
2023-02-21T17:03:28.410Z,11.20
2023-02-21T17:05:58.148Z,11.30
2023-02-21T17:08:27.578Z,11.30
2023-02-21T17:10:56.564Z,11.10
2023-02-21T17:13:26.022Z,10.90
2023-02-21T17:15:55.193Z,10.80
2023-02-21T17:18:24.304Z,10.80
2023-02-21T17:20:52.746Z,10.70
2023-02-21T17:23:20.823Z,10.70
2023-02-21T17:25:49.283Z,10.70
2023-02-21T17:28:17.761Z,10.70
2023-02-21T17:30:50.331Z,10.90
2023-02-21T17:33:21.511Z,10.90
2023-02-21T17:35:50.053Z,10.60
2023-02-21T17:38:18.308Z,10.50
2023-02-21T17:40:46.705Z,10.40
2023-02-21T17:43:17.416Z,10.20
2023-02-21T17:45:47.418Z,10.00
2023-02-21T17:48:17.302Z,10.20
2023-02-21T17:50:45.428Z,9.90
2023-02-21T17:53:13.491Z,9.80
2023-02-21T17:55:41.567Z,9.70
2023-02-21T17:58:10.613Z,9.70
2023-02-21T18:00:39.384Z,9.80
2023-02-21T18:03:09.489Z,9.90
2023-02-21T18:05:38.215Z,9.80
2023-02-21T18:08:06.706Z,9.60
2023-02-21T18:10:35.198Z,9.70
2023-02-21T18:13:03.407Z,9.60
2023-02-21T18:15:32.142Z,9.50
2023-02-21T18:18:06.991Z,9.40
2023-02-21T18:20:38.590Z,9.50
2023-02-21T18:23:07.405Z,9.60
2023-02-21T18:25:36.425Z,9.30
2023-02-21T18:28:05.743Z,9.20
2023-02-21T18:30:34.104Z,9.20
2023-02-21T18:33:02.672Z,9.20
2023-02-21T18:35:30.838Z,9.20
2023-02-21T18:38:00.326Z,9.20
2023-02-21T18:40:35.201Z,9.30
2023-02-21T18:43:03.332Z,9.40
2023-02-21T18:45:32.888Z,9.40
2023-02-21T18:48:02.337Z,9.40
2023-02-21T18:50:30.318Z,9.40
2023-02-21T18:53:02.066Z,9.40
2023-02-21T18:55:30.162Z,9.50
2023-02-21T18:57:58.192Z,9.30
2023-02-21T19:00:27.765Z,9.20
2023-02-21T19:02:56.307Z,9.10
2023-02-21T19:05:25.933Z,9.10
2023-02-21T19:07:54.564Z,9.00
2023-02-21T19:10:25.814Z,9.10
2023-02-21T19:12:53.880Z,9.20
2023-02-21T19:15:22.815Z,9.20
2023-02-21T19:17:50.797Z,9.20
2023-02-21T19:20:20.431Z,9.30
2023-02-21T19:22:48.706Z,9.30
2023-02-21T19:25:17.680Z,9.20
2023-02-21T19:27:47.167Z,9.00
2023-02-21T19:30:15.548Z,8.90
2023-02-21T19:32:43.545Z,9.00
2023-02-21T19:35:11.642Z,8.70
2023-02-21T19:37:39.618Z,8.70
2023-02-21T19:40:09.337Z,8.80
2023-02-21T19:42:37.319Z,8.50
2023-02-21T19:45:07.609Z,8.40
2023-02-21T19:47:40.342Z,8.30
2023-02-21T19:50:12.044Z,8.20
2023-02-21T19:52:41.315Z,8.20
2023-02-21T19:55:11.090Z,8.20
2023-02-21T19:57:39.528Z,8.20
2023-02-21T20:00:12.149Z,8.20
2023-02-21T20:02:40.860Z,8.20
2023-02-21T20:05:10.399Z,8.30
2023-02-21T20:07:38.960Z,8.40
2023-02-21T20:10:08.795Z,8.60
2023-02-21T20:12:37.169Z,8.70
2023-02-21T20:15:07.282Z,8.80
2023-02-21T20:17:39.302Z,8.90
2023-02-21T20:20:11.754Z,9.00
2023-02-21T20:22:40.189Z,8.90
2023-02-21T20:25:09.920Z,8.70
2023-02-21T20:27:39.294Z,8.50
2023-02-21T20:30:09.782Z,8.40
2023-02-21T20:32:40.365Z,8.20
2023-02-21T20:35:10.323Z,8.20
2023-02-21T20:37:38.798Z,7.90
2023-02-21T20:40:11.037Z,7.80
2023-02-21T20:42:39.621Z,7.90
2023-02-21T20:45:11.104Z,7.80
2023-02-21T20:47:42.894Z,7.80
2023-02-21T20:50:13.571Z,7.70
2023-02-21T20:52:43.967Z,7.90
2023-02-21T20:55:12.975Z,7.80
2023-02-21T20:57:41.095Z,7.80
2023-02-21T21:00:10.959Z,7.90
2023-02-21T21:02:40.635Z,7.90
2023-02-21T21:05:13.694Z,7.90
2023-02-21T21:07:42.425Z,8.00
2023-02-21T21:10:14.608Z,7.90
2023-02-21T21:12:44.385Z,7.90
2023-02-21T21:15:14.726Z,7.80
2023-02-21T21:17:44.871Z,7.80
2023-02-21T21:20:17.633Z,7.90
2023-02-21T21:22:46.931Z,7.90
2023-02-21T21:25:16.920Z,7.80
2023-02-21T21:27:45.800Z,7.80
2023-02-21T21:30:19.646Z,7.80
2023-02-21T21:32:49.667Z,7.90
2023-02-21T21:35:19.783Z,7.80
2023-02-21T21:37:49.074Z,7.70
2023-02-21T21:40:17.769Z,7.60
2023-02-21T21:42:49.438Z,7.60
2023-02-21T21:45:19.570Z,7.60
2023-02-21T21:47:50.966Z,7.70
2023-02-21T21:50:21.225Z,7.70
2023-02-21T21:52:53.278Z,7.70
2023-02-21T21:55:25.498Z,7.50
2023-02-21T21:57:54.827Z,7.50
2023-02-21T22:00:25.968Z,7.60
2023-02-21T22:02:58.482Z,7.60
2023-02-21T22:05:28.427Z,7.50
2023-02-21T22:07:57.625Z,7.50
2023-02-21T22:10:27.245Z,7.50
2023-02-21T22:12:59.934Z,7.50
2023-02-21T22:15:30.212Z,7.60
2023-02-21T22:18:03.846Z,7.60
2023-02-21T22:20:31.952Z,7.60
2023-02-21T22:23:00.211Z,7.60
2023-02-21T22:25:32.365Z,7.60
2023-02-21T22:28:04.376Z,7.70
2023-02-21T22:30:32.643Z,7.60
2023-02-21T22:33:02.072Z,7.40
2023-02-21T22:35:32.118Z,7.40
2023-02-21T22:38:02.930Z,7.40
2023-02-21T22:40:35.548Z,7.60
2023-02-21T22:43:08.310Z,7.50
2023-02-21T22:45:38.033Z,7.50
2023-02-21T22:48:10.007Z,7.60
2023-02-21T22:50:39.370Z,7.40
2023-02-21T22:53:09.528Z,7.50
2023-02-21T22:55:38.619Z,7.50
2023-02-21T22:58:10.178Z,7.50
2023-02-21T23:00:39.075Z,7.60
2023-02-21T23:03:13.615Z,7.70
2023-02-21T23:05:43.590Z,7.70
2023-02-21T23:08:13.859Z,7.50
2023-02-21T23:10:43.035Z,7.30
2023-02-21T23:13:14.988Z,7.30
2023-02-21T23:15:44.129Z,7.20
2023-02-21T23:18:20.221Z,7.10
2023-02-21T23:20:49.297Z,7.10
2023-02-21T23:23:17.246Z,7.00
2023-02-21T23:25:46.731Z,6.80
2023-02-21T23:28:17.245Z,6.70
2023-02-21T23:30:46.165Z,6.70
2023-02-21T23:33:18.403Z,6.60
2023-02-21T23:35:49.941Z,6.60
2023-02-21T23:38:22.547Z,6.60
2023-02-21T23:40:55.986Z,6.50
2023-02-21T23:43:29.167Z,6.70
2023-02-21T23:46:00.130Z,6.70
2023-02-21T23:48:32.593Z,6.70
2023-02-21T23:51:01.169Z,6.80
2023-02-21T23:53:31.768Z,6.80
2023-02-21T23:56:00.573Z,6.90
2023-02-21T23:58:33.040Z,6.70
